sensor_id;sensor_type;location;lat;lon;timestamp;P1;durP1;ratioP1;P2;durP2;ratioP2
76351;SDS011;65179;47.786;19.138;2023-03-01T00:00:38;20.77;;;10.90;;
76351;SDS011;65179;47.786;19.138;2023-03-01T00:03:04;21.40;;;9.93;;
76351;SDS011;65179;47.786;19.138;2023-03-01T00:05:29;23.97;;;10.87;;
76351;SDS011;65179;47.786;19.138;2023-03-01T00:07:55;21.90;;;11.10;;
76351;SDS011;65179;47.786;19.138;2023-03-01T00:10:20;22.73;;;11.20;;
76351;SDS011;65179;47.786;19.138;2023-03-01T00:12:46;20.70;;;10.43;;
76351;SDS011;65179;47.786;19.138;2023-03-01T00:15:11;23.67;;;11.73;;
76351;SDS011;65179;47.786;19.138;2023-03-01T00:17:37;23.35;;;10.85;;
76351;SDS011;65179;47.786;19.138;2023-03-01T00:20:02;22.37;;;11.63;;
76351;SDS011;65179;47.786;19.138;2023-03-01T00:22:28;26.30;;;12.18;;
76351;SDS011;65179;47.786;19.138;2023-03-01T00:24:54;21.87;;;12.03;;
76351;SDS011;65179;47.786;19.138;2023-03-01T00:27:19;23.27;;;11.68;;
76351;SDS011;65179;47.786;19.138;2023-03-01T00:29:45;22.53;;;10.97;;
76351;SDS011;65179;47.786;19.138;2023-03-01T00:32:10;20.07;;;10.53;;
76351;SDS011;65179;47.786;19.138;2023-03-01T00:34:36;20.37;;;11.07;;
76351;SDS011;65179;47.786;19.138;2023-03-01T00:37:01;25.12;;;11.88;;
76351;SDS011;65179;47.786;19.138;2023-03-01T00:39:30;21.30;;;11.02;;
76351;SDS011;65179;47.786;19.138;2023-03-01T00:41:57;24.00;;;11.05;;
76351;SDS011;65179;47.786;19.138;2023-03-01T00:44:22;21.30;;;10.87;;
76351;SDS011;65179;47.786;19.138;2023-03-01T00:46:48;20.25;;;9.75;;
76351;SDS011;65179;47.786;19.138;2023-03-01T00:49:13;20.60;;;10.50;;
76351;SDS011;65179;47.786;19.138;2023-03-01T00:51:39;23.20;;;11.67;;
76351;SDS011;65179;47.786;19.138;2023-03-01T00:54:07;24.98;;;11.43;;
76351;SDS011;65179;47.786;19.138;2023-03-01T00:56:33;22.33;;;11.02;;
76351;SDS011;65179;47.786;19.138;2023-03-01T00:58:59;21.03;;;11.47;;
76351;SDS011;65179;47.786;19.138;2023-03-01T01:01:26;22.52;;;11.65;;
76351;SDS011;65179;47.786;19.138;2023-03-01T01:03:57;21.17;;;11.00;;
76351;SDS011;65179;47.786;19.138;2023-03-01T01:06:25;23.25;;;11.23;;
76351;SDS011;65179;47.786;19.138;2023-03-01T01:08:55;24.20;;;10.88;;
76351;SDS011;65179;47.786;19.138;2023-03-01T01:11:22;20.88;;;10.95;;
76351;SDS011;65179;47.786;19.138;2023-03-01T01:13:49;26.00;;;11.12;;
76351;SDS011;65179;47.786;19.138;2023-03-01T01:16:15;21.58;;;10.20;;
76351;SDS011;65179;47.786;19.138;2023-03-01T01:18:41;22.20;;;10.73;;
76351;SDS011;65179;47.786;19.138;2023-03-01T01:21:09;23.25;;;11.00;;
76351;SDS011;65179;47.786;19.138;2023-03-01T01:23:37;23.33;;;11.50;;
76351;SDS011;65179;47.786;19.138;2023-03-01T01:26:05;24.23;;;11.02;;
76351;SDS011;65179;47.786;19.138;2023-03-01T01:28:31;21.23;;;10.40;;
76351;SDS011;65179;47.786;19.138;2023-03-01T01:30:57;22.03;;;11.07;;
76351;SDS011;65179;47.786;19.138;2023-03-01T01:33:23;18.27;;;9.65;;
76351;SDS011;65179;47.786;19.138;2023-03-01T01:35:48;19.17;;;9.73;;
76351;SDS011;65179;47.786;19.138;2023-03-01T01:38:14;20.83;;;9.70;;
76351;SDS011;65179;47.786;19.138;2023-03-01T01:40:45;19.33;;;10.03;;
76351;SDS011;65179;47.786;19.138;2023-03-01T01:46:38;18.75;;;9.57;;
76351;SDS011;65179;47.786;19.138;2023-03-01T01:52:20;20.35;;;9.90;;
76351;SDS011;65179;47.786;19.138;2023-03-01T01:54:52;22.50;;;9.73;;
76351;SDS011;65179;47.786;19.138;2023-03-01T01:57:25;18.40;;;8.95;;
76351;SDS011;65179;47.786;19.138;2023-03-01T01:59:58;17.58;;;9.45;;
76351;SDS011;65179;47.786;19.138;2023-03-01T02:02:27;18.25;;;8.90;;
76351;SDS011;65179;47.786;19.138;2023-03-01T02:04:55;20.10;;;9.37;;
76351;SDS011;65179;47.786;19.138;2023-03-01T02:07:28;19.20;;;10.52;;
76351;SDS011;65179;47.786;19.138;2023-03-01T02:09:55;19.10;;;9.65;;
76351;SDS011;65179;47.786;19.138;2023-03-01T02:12:21;19.07;;;9.93;;
76351;SDS011;65179;47.786;19.138;2023-03-01T02:14:49;17.15;;;9.05;;
76351;SDS011;65179;47.786;19.138;2023-03-01T02:17:15;20.25;;;9.48;;
76351;SDS011;65179;47.786;19.138;2023-03-01T02:22:24;18.30;;;9.93;;
76351;SDS011;65179;47.786;19.138;2023-03-01T02:27:19;20.60;;;9.77;;
76351;SDS011;65179;47.786;19.138;2023-03-01T02:29:51;18.95;;;9.77;;
76351;SDS011;65179;47.786;19.138;2023-03-01T02:32:16;20.77;;;9.63;;
76351;SDS011;65179;47.786;19.138;2023-03-01T02:34:50;22.30;;;9.70;;
76351;SDS011;65179;47.786;19.138;2023-03-01T02:37:20;20.85;;;9.60;;
76351;SDS011;65179;47.786;19.138;2023-03-01T02:39:50;19.17;;;9.52;;
76351;SDS011;65179;47.786;19.138;2023-03-01T02:42:23;19.50;;;9.47;;
76351;SDS011;65179;47.786;19.138;2023-03-01T02:44:55;19.33;;;9.60;;
76351;SDS011;65179;47.786;19.138;2023-03-01T02:47:21;19.23;;;10.02;;
76351;SDS011;65179;47.786;19.138;2023-03-01T02:49:47;19.77;;;9.73;;
76351;SDS011;65179;47.786;19.138;2023-03-01T02:55:12;16.80;;;7.97;;
76351;SDS011;65179;47.786;19.138;2023-03-01T02:57:42;17.45;;;8.50;;
76351;SDS011;65179;47.786;19.138;2023-03-01T03:00:09;15.45;;;8.20;;
76351;SDS011;65179;47.786;19.138;2023-03-01T03:02:44;16.77;;;8.55;;
76351;SDS011;65179;47.786;19.138;2023-03-01T03:05:12;17.27;;;8.75;;
76351;SDS011;65179;47.786;19.138;2023-03-01T03:07:40;16.57;;;8.50;;
76351;SDS011;65179;47.786;19.138;2023-03-01T03:10:07;15.20;;;7.85;;
76351;SDS011;65179;47.786;19.138;2023-03-01T03:12:37;17.55;;;9.00;;
76351;SDS011;65179;47.786;19.138;2023-03-01T03:15:03;17.60;;;9.18;;
76351;SDS011;65179;47.786;19.138;2023-03-01T03:17:34;15.60;;;8.65;;
76351;SDS011;65179;47.786;19.138;2023-03-01T03:20:00;19.50;;;9.13;;
76351;SDS011;65179;47.786;19.138;2023-03-01T03:22:28;19.48;;;9.32;;
76351;SDS011;65179;47.786;19.138;2023-03-01T03:24:53;20.20;;;10.00;;
76351;SDS011;65179;47.786;19.138;2023-03-01T03:27:19;20.00;;;9.70;;
76351;SDS011;65179;47.786;19.138;2023-03-01T03:29:44;20.33;;;9.77;;
76351;SDS011;65179;47.786;19.138;2023-03-01T03:32:10;18.80;;;10.30;;
76351;SDS011;65179;47.786;19.138;2023-03-01T03:34:35;20.50;;;9.75;;
76351;SDS011;65179;47.786;19.138;2023-03-01T03:37:01;22.05;;;10.90;;
76351;SDS011;65179;47.786;19.138;2023-03-01T03:39:26;22.63;;;10.93;;
76351;SDS011;65179;47.786;19.138;2023-03-01T03:41:52;23.12;;;11.02;;
76351;SDS011;65179;47.786;19.138;2023-03-01T03:44:19;19.42;;;10.40;;
76351;SDS011;65179;47.786;19.138;2023-03-01T03:46:44;21.57;;;10.77;;
76351;SDS011;65179;47.786;19.138;2023-03-01T03:49:10;19.77;;;9.82;;
76351;SDS011;65179;47.786;19.138;2023-03-01T03:51:35;21.47;;;10.27;;
76351;SDS011;65179;47.786;19.138;2023-03-01T03:54:01;21.53;;;9.90;;
76351;SDS011;65179;47.786;19.138;2023-03-01T03:56:26;19.83;;;9.75;;
76351;SDS011;65179;47.786;19.138;2023-03-01T03:58:52;20.67;;;9.73;;
76351;SDS011;65179;47.786;19.138;2023-03-01T04:01:18;21.97;;;10.53;;
76351;SDS011;65179;47.786;19.138;2023-03-01T04:03:43;21.55;;;10.18;;
76351;SDS011;65179;47.786;19.138;2023-03-01T04:06:12;18.40;;;10.02;;
76351;SDS011;65179;47.786;19.138;2023-03-01T04:08:38;23.25;;;10.35;;
76351;SDS011;65179;47.786;19.138;2023-03-01T04:11:04;19.95;;;10.23;;
76351;SDS011;65179;47.786;19.138;2023-03-01T04:13:49;20.58;;;10.23;;
76351;SDS011;65179;47.786;19.138;2023-03-01T04:16:15;20.85;;;9.73;;
76351;SDS011;65179;47.786;19.138;2023-03-01T04:18:41;18.58;;;9.80;;
76351;SDS011;65179;47.786;19.138;2023-03-01T04:21:07;18.20;;;9.57;;
76351;SDS011;65179;47.786;19.138;2023-03-01T04:23:32;22.03;;;11.10;;
76351;SDS011;65179;47.786;19.138;2023-03-01T04:25:58;22.23;;;11.53;;
76351;SDS011;65179;47.786;19.138;2023-03-01T04:28:31;18.87;;;9.95;;
76351;SDS011;65179;47.786;19.138;2023-03-01T04:31:09;18.65;;;9.40;;
76351;SDS011;65179;47.786;19.138;2023-03-01T04:33:47;22.85;;;10.70;;
76351;SDS011;65179;47.786;19.138;2023-03-01T04:36:20;21.15;;;10.20;;
76351;SDS011;65179;47.786;19.138;2023-03-01T04:38:48;18.70;;;10.40;;
76351;SDS011;65179;47.786;19.138;2023-03-01T04:41:14;18.45;;;9.43;;
76351;SDS011;65179;47.786;19.138;2023-03-01T04:43:41;18.73;;;9.57;;
76351;SDS011;65179;47.786;19.138;2023-03-01T04:46:08;21.08;;;10.95;;
76351;SDS011;65179;47.786;19.138;2023-03-01T04:48:37;19.90;;;10.15;;
76351;SDS011;65179;47.786;19.138;2023-03-01T04:51:04;19.95;;;10.52;;
76351;SDS011;65179;47.786;19.138;2023-03-01T04:53:33;22.20;;;11.12;;
76351;SDS011;65179;47.786;19.138;2023-03-01T04:56:01;21.98;;;11.02;;
76351;SDS011;65179;47.786;19.138;2023-03-01T04:58:27;20.08;;;10.50;;
76351;SDS011;65179;47.786;19.138;2023-03-01T05:00:54;21.77;;;10.60;;
76351;SDS011;65179;47.786;19.138;2023-03-01T05:03:20;19.80;;;9.70;;
76351;SDS011;65179;47.786;19.138;2023-03-01T05:05:47;21.67;;;10.88;;
76351;SDS011;65179;47.786;19.138;2023-03-01T05:08:14;19.30;;;10.38;;
76351;SDS011;65179;47.786;19.138;2023-03-01T05:10:44;21.60;;;9.85;;
76351;SDS011;65179;47.786;19.138;2023-03-01T05:13:09;18.85;;;10.20;;
76351;SDS011;65179;47.786;19.138;2023-03-01T05:15:35;20.88;;;10.98;;
76351;SDS011;65179;47.786;19.138;2023-03-01T05:18:01;22.13;;;10.65;;
76351;SDS011;65179;47.786;19.138;2023-03-01T05:20:30;17.70;;;10.18;;
76351;SDS011;65179;47.786;19.138;2023-03-01T05:22:57;21.80;;;9.90;;
76351;SDS011;65179;47.786;19.138;2023-03-01T05:25:24;23.25;;;10.50;;
76351;SDS011;65179;47.786;19.138;2023-03-01T05:27:49;20.98;;;11.38;;
76351;SDS011;65179;47.786;19.138;2023-03-01T05:30:16;20.27;;;9.82;;
76351;SDS011;65179;47.786;19.138;2023-03-01T05:32:43;23.45;;;11.10;;
76351;SDS011;65179;47.786;19.138;2023-03-01T05:35:11;20.92;;;10.02;;
76351;SDS011;65179;47.786;19.138;2023-03-01T05:37:38;22.90;;;10.35;;
76351;SDS011;65179;47.786;19.138;2023-03-01T05:40:07;19.92;;;10.18;;
76351;SDS011;65179;47.786;19.138;2023-03-01T05:42:40;23.60;;;11.93;;
76351;SDS011;65179;47.786;19.138;2023-03-01T05:45:07;23.52;;;12.82;;
76351;SDS011;65179;47.786;19.138;2023-03-01T05:47:34;25.25;;;13.18;;
76351;SDS011;65179;47.786;19.138;2023-03-01T05:50:00;25.35;;;12.88;;
76351;SDS011;65179;47.786;19.138;2023-03-01T05:52:26;24.65;;;12.93;;
76351;SDS011;65179;47.786;19.138;2023-03-01T05:54:52;31.27;;;12.40;;
76351;SDS011;65179;47.786;19.138;2023-03-01T05:57:17;24.83;;;13.67;;
76351;SDS011;65179;47.786;19.138;2023-03-01T05:59:43;21.03;;;11.80;;
76351;SDS011;65179;47.786;19.138;2023-03-01T06:02:08;28.63;;;12.47;;
76351;SDS011;65179;47.786;19.138;2023-03-01T06:04:33;24.17;;;12.20;;
76351;SDS011;65179;47.786;19.138;2023-03-01T06:06:59;23.37;;;11.27;;
76351;SDS011;65179;47.786;19.138;2023-03-01T06:09:24;24.90;;;13.03;;
76351;SDS011;65179;47.786;19.138;2023-03-01T06:11:51;31.98;;;13.75;;
76351;SDS011;65179;47.786;19.138;2023-03-01T06:14:16;25.93;;;13.30;;
76351;SDS011;65179;47.786;19.138;2023-03-01T06:16:41;25.77;;;13.50;;
76351;SDS011;65179;47.786;19.138;2023-03-01T06:19:07;25.83;;;12.32;;
76351;SDS011;65179;47.786;19.138;2023-03-01T06:21:32;30.27;;;13.50;;
76351;SDS011;65179;47.786;19.138;2023-03-01T06:23:58;30.90;;;13.87;;
76351;SDS011;65179;47.786;19.138;2023-03-01T06:26:23;27.90;;;13.77;;
76351;SDS011;65179;47.786;19.138;2023-03-01T06:28:49;33.47;;;13.60;;
76351;SDS011;65179;47.786;19.138;2023-03-01T06:31:14;29.50;;;13.88;;
76351;SDS011;65179;47.786;19.138;2023-03-01T06:33:40;33.27;;;15.03;;
76351;SDS011;65179;47.786;19.138;2023-03-01T06:36:05;31.77;;;14.83;;
76351;SDS011;65179;47.786;19.138;2023-03-01T06:38:32;32.25;;;14.25;;
76351;SDS011;65179;47.786;19.138;2023-03-01T06:40:57;31.10;;;14.32;;
76351;SDS011;65179;47.786;19.138;2023-03-01T06:43:23;26.83;;;13.43;;
76351;SDS011;65179;47.786;19.138;2023-03-01T06:45:48;30.17;;;14.47;;
76351;SDS011;65179;47.786;19.138;2023-03-01T06:48:14;25.70;;;12.45;;
76351;SDS011;65179;47.786;19.138;2023-03-01T06:50:40;22.73;;;11.50;;
76351;SDS011;65179;47.786;19.138;2023-03-01T06:53:06;21.37;;;11.27;;
76351;SDS011;65179;47.786;19.138;2023-03-01T06:55:31;24.27;;;10.83;;
76351;SDS011;65179;47.786;19.138;2023-03-01T06:57:58;21.27;;;10.95;;
76351;SDS011;65179;47.786;19.138;2023-03-01T07:00:25;22.50;;;11.07;;
76351;SDS011;65179;47.786;19.138;2023-03-01T07:02:52;19.20;;;9.80;;
76351;SDS011;65179;47.786;19.138;2023-03-01T07:05:18;23.00;;;10.85;;
76351;SDS011;65179;47.786;19.138;2023-03-01T07:07:43;23.07;;;10.43;;
76351;SDS011;65179;47.786;19.138;2023-03-01T07:10:09;27.95;;;12.52;;
76351;SDS011;65179;47.786;19.138;2023-03-01T07:12:35;19.20;;;9.53;;
76351;SDS011;65179;47.786;19.138;2023-03-01T07:15:01;17.10;;;9.52;;
76351;SDS011;65179;47.786;19.138;2023-03-01T07:17:27;22.02;;;9.90;;
76351;SDS011;65179;47.786;19.138;2023-03-01T07:19:52;17.77;;;9.20;;
76351;SDS011;65179;47.786;19.138;2023-03-01T07:22:18;22.07;;;9.53;;
76351;SDS011;65179;47.786;19.138;2023-03-01T07:24:43;18.02;;;9.43;;
76351;SDS011;65179;47.786;19.138;2023-03-01T07:27:09;17.33;;;8.43;;
76351;SDS011;65179;47.786;19.138;2023-03-01T07:29:35;19.12;;;9.43;;
76351;SDS011;65179;47.786;19.138;2023-03-01T07:32:02;20.27;;;10.50;;
76351;SDS011;65179;47.786;19.138;2023-03-01T07:34:28;16.77;;;8.80;;
76351;SDS011;65179;47.786;19.138;2023-03-01T07:36:53;16.73;;;9.25;;
76351;SDS011;65179;47.786;19.138;2023-03-01T07:39:19;19.57;;;9.57;;
76351;SDS011;65179;47.786;19.138;2023-03-01T07:41:44;19.03;;;9.03;;
76351;SDS011;65179;47.786;19.138;2023-03-01T07:44:10;19.00;;;8.75;;
76351;SDS011;65179;47.786;19.138;2023-03-01T07:46:36;21.47;;;10.07;;
76351;SDS011;65179;47.786;19.138;2023-03-01T07:49:02;21.90;;;9.55;;
76351;SDS011;65179;47.786;19.138;2023-03-01T07:51:27;21.23;;;10.23;;
76351;SDS011;65179;47.786;19.138;2023-03-01T07:53:53;19.17;;;9.77;;
76351;SDS011;65179;47.786;19.138;2023-03-01T07:56:18;21.45;;;9.88;;
76351;SDS011;65179;47.786;19.138;2023-03-01T07:58:45;21.70;;;10.73;;
76351;SDS011;65179;47.786;19.138;2023-03-01T08:01:12;18.83;;;9.73;;
76351;SDS011;65179;47.786;19.138;2023-03-01T08:03:39;21.92;;;9.68;;
76351;SDS011;65179;47.786;19.138;2023-03-01T08:06:05;16.27;;;9.13;;
76351;SDS011;65179;47.786;19.138;2023-03-01T08:08:32;21.27;;;10.15;;
76351;SDS011;65179;47.786;19.138;2023-03-01T08:10:59;18.27;;;9.10;;
76351;SDS011;65179;47.786;19.138;2023-03-01T08:13:26;21.12;;;10.25;;
76351;SDS011;65179;47.786;19.138;2023-03-01T08:15:52;18.03;;;9.43;;
76351;SDS011;65179;47.786;19.138;2023-03-01T08:18:19;18.05;;;8.65;;
76351;SDS011;65179;47.786;19.138;2023-03-01T08:20:45;17.67;;;9.15;;
76351;SDS011;65179;47.786;19.138;2023-03-01T08:23:11;19.33;;;8.43;;
76351;SDS011;65179;47.786;19.138;2023-03-01T08:25:39;20.23;;;9.03;;
76351;SDS011;65179;47.786;19.138;2023-03-01T08:28:05;19.20;;;9.45;;
76351;SDS011;65179;47.786;19.138;2023-03-01T08:30:30;17.17;;;8.60;;
76351;SDS011;65179;47.786;19.138;2023-03-01T08:32:56;18.23;;;9.02;;
76351;SDS011;65179;47.786;19.138;2023-03-01T08:35:22;17.93;;;9.03;;
76351;SDS011;65179;47.786;19.138;2023-03-01T08:37:47;16.10;;;8.30;;
76351;SDS011;65179;47.786;19.138;2023-03-01T08:40:13;15.70;;;8.20;;
76351;SDS011;65179;47.786;19.138;2023-03-01T08:42:39;16.67;;;8.30;;
76351;SDS011;65179;47.786;19.138;2023-03-01T08:45:06;15.10;;;8.40;;
76351;SDS011;65179;47.786;19.138;2023-03-01T08:47:32;16.65;;;8.27;;
76351;SDS011;65179;47.786;19.138;2023-03-01T08:49:58;19.47;;;8.57;;
76351;SDS011;65179;47.786;19.138;2023-03-01T08:52:24;15.65;;;7.70;;
76351;SDS011;65179;47.786;19.138;2023-03-01T08:54:51;17.30;;;9.20;;
76351;SDS011;65179;47.786;19.138;2023-03-01T08:57:16;18.52;;;8.98;;
76351;SDS011;65179;47.786;19.138;2023-03-01T08:59:42;15.87;;;7.90;;
76351;SDS011;65179;47.786;19.138;2023-03-01T09:02:14;17.63;;;7.40;;
76351;SDS011;65179;47.786;19.138;2023-03-01T09:04:42;16.10;;;7.72;;
76351;SDS011;65179;47.786;19.138;2023-03-01T09:07:07;14.38;;;7.72;;
76351;SDS011;65179;47.786;19.138;2023-03-01T09:09:33;17.53;;;8.30;;
76351;SDS011;65179;47.786;19.138;2023-03-01T09:11:59;15.32;;;7.93;;
76351;SDS011;65179;47.786;19.138;2023-03-01T09:14:25;14.80;;;8.17;;
76351;SDS011;65179;47.786;19.138;2023-03-01T09:16:50;15.05;;;7.95;;
76351;SDS011;65179;47.786;19.138;2023-03-01T09:19:16;13.87;;;7.17;;
76351;SDS011;65179;47.786;19.138;2023-03-01T09:21:41;13.07;;;7.00;;
76351;SDS011;65179;47.786;19.138;2023-03-01T09:24:16;15.00;;;6.90;;
76351;SDS011;65179;47.786;19.138;2023-03-01T09:26:43;13.75;;;6.87;;
76351;SDS011;65179;47.786;19.138;2023-03-01T09:29:11;16.55;;;7.82;;
76351;SDS011;65179;47.786;19.138;2023-03-01T09:31:38;16.60;;;7.43;;
76351;SDS011;65179;47.786;19.138;2023-03-01T09:34:04;14.30;;;7.40;;
76351;SDS011;65179;47.786;19.138;2023-03-01T09:36:30;13.55;;;7.65;;
76351;SDS011;65179;47.786;19.138;2023-03-01T09:38:56;17.00;;;7.23;;
76351;SDS011;65179;47.786;19.138;2023-03-01T09:44:18;15.70;;;7.47;;
76351;SDS011;65179;47.786;19.138;2023-03-01T09:47:04;15.38;;;7.60;;
76351;SDS011;65179;47.786;19.138;2023-03-01T09:49:35;14.60;;;7.43;;
76351;SDS011;65179;47.786;19.138;2023-03-01T09:54:49;14.63;;;6.97;;
76351;SDS011;65179;47.786;19.138;2023-03-01T09:57:20;13.40;;;7.20;;
76351;SDS011;65179;47.786;19.138;2023-03-01T10:06:09;13.77;;;7.30;;
76351;SDS011;65179;47.786;19.138;2023-03-01T10:08:42;13.27;;;6.72;;
76351;SDS011;65179;47.786;19.138;2023-03-01T10:11:32;16.85;;;7.60;;
76351;SDS011;65179;47.786;19.138;2023-03-01T10:14:05;13.48;;;7.40;;
76351;SDS011;65179;47.786;19.138;2023-03-01T10:16:48;14.65;;;7.37;;
76351;SDS011;65179;47.786;19.138;2023-03-01T10:19:39;14.33;;;7.40;;
76351;SDS011;65179;47.786;19.138;2023-03-01T10:24:38;12.73;;;6.90;;
76351;SDS011;65179;47.786;19.138;2023-03-01T10:27:09;13.13;;;6.57;;
76351;SDS011;65179;47.786;19.138;2023-03-01T10:29:44;12.95;;;6.95;;
76351;SDS011;65179;47.786;19.138;2023-03-01T10:32:10;14.48;;;6.95;;
76351;SDS011;65179;47.786;19.138;2023-03-01T10:34:36;12.37;;;7.37;;
76351;SDS011;65179;47.786;19.138;2023-03-01T10:37:15;15.27;;;7.43;;
76351;SDS011;65179;47.786;19.138;2023-03-01T10:40:17;12.60;;;6.40;;
76351;SDS011;65179;47.786;19.138;2023-03-01T10:42:37;13.05;;;6.85;;
76351;SDS011;65179;47.786;19.138;2023-03-01T10:48:04;13.68;;;6.62;;
76351;SDS011;65179;47.786;19.138;2023-03-01T10:50:31;11.85;;;6.10;;
76351;SDS011;65179;47.786;19.138;2023-03-01T10:52:58;12.27;;;6.60;;
76351;SDS011;65179;47.786;19.138;2023-03-01T10:55:35;12.65;;;6.55;;
76351;SDS011;65179;47.786;19.138;2023-03-01T11:00:52;11.30;;;6.17;;
76351;SDS011;65179;47.786;19.138;2023-03-01T11:08:41;11.65;;;6.32;;
76351;SDS011;65179;47.786;19.138;2023-03-01T11:13:34;15.02;;;6.95;;
76351;SDS011;65179;47.786;19.138;2023-03-01T11:16:01;15.07;;;6.27;;
76351;SDS011;65179;47.786;19.138;2023-03-01T11:18:29;12.37;;;6.00;;
76351;SDS011;65179;47.786;19.138;2023-03-01T11:20:55;12.98;;;6.60;;
76351;SDS011;65179;47.786;19.138;2023-03-01T11:23:24;10.73;;;6.20;;
76351;SDS011;65179;47.786;19.138;2023-03-01T11:25:56;11.73;;;6.03;;
76351;SDS011;65179;47.786;19.138;2023-03-01T11:28:25;10.95;;;5.80;;
76351;SDS011;65179;47.786;19.138;2023-03-01T11:33:36;10.18;;;5.97;;
76351;SDS011;65179;47.786;19.138;2023-03-01T11:39:14;10.77;;;5.27;;
76351;SDS011;65179;47.786;19.138;2023-03-01T11:41:52;9.93;;;5.62;;
76351;SDS011;65179;47.786;19.138;2023-03-01T11:44:28;11.18;;;6.15;;
76351;SDS011;65179;47.786;19.138;2023-03-01T11:49:46;9.65;;;5.80;;
76351;SDS011;65179;47.786;19.138;2023-03-01T12:03:38;10.05;;;5.07;;
76351;SDS011;65179;47.786;19.138;2023-03-01T12:21:05;8.80;;;4.70;;
76351;SDS011;65179;47.786;19.138;2023-03-01T12:31:37;9.90;;;4.35;;
76351;SDS011;65179;47.786;19.138;2023-03-01T12:49:15;8.30;;;4.80;;
76351;SDS011;65179;47.786;19.138;2023-03-01T12:51:34;9.88;;;4.70;;
76351;SDS011;65179;47.786;19.138;2023-03-01T12:54:05;11.52;;;4.97;;
76351;SDS011;65179;47.786;19.138;2023-03-01T12:56:45;11.73;;;6.18;;
76351;SDS011;65179;47.786;19.138;2023-03-01T13:07:36;10.45;;;4.80;;
76351;SDS011;65179;47.786;19.138;2023-03-01T13:10:26;9.43;;;4.55;;
76351;SDS011;65179;47.786;19.138;2023-03-01T13:17:51;9.52;;;5.32;;
76351;SDS011;65179;47.786;19.138;2023-03-01T13:20:18;9.65;;;4.93;;
76351;SDS011;65179;47.786;19.138;2023-03-01T13:22:46;9.00;;;5.22;;
76351;SDS011;65179;47.786;19.138;2023-03-01T13:25:17;10.30;;;4.72;;
76351;SDS011;65179;47.786;19.138;2023-03-01T13:27:44;8.73;;;4.20;;
76351;SDS011;65179;47.786;19.138;2023-03-01T13:35:53;8.63;;;3.85;;
76351;SDS011;65179;47.786;19.138;2023-03-01T13:41:11;10.23;;;3.70;;
76351;SDS011;65179;47.786;19.138;2023-03-01T13:43:43;8.80;;;3.87;;
76351;SDS011;65179;47.786;19.138;2023-03-01T13:46:14;8.00;;;4.20;;
76351;SDS011;65179;47.786;19.138;2023-03-01T13:48:44;10.30;;;4.35;;
76351;SDS011;65179;47.786;19.138;2023-03-01T13:51:23;8.63;;;4.60;;
76351;SDS011;65179;47.786;19.138;2023-03-01T13:53:51;8.37;;;4.00;;
76351;SDS011;65179;47.786;19.138;2023-03-01T13:56:27;8.23;;;4.45;;
76351;SDS011;65179;47.786;19.138;2023-03-01T13:58:59;8.13;;;3.75;;
76351;SDS011;65179;47.786;19.138;2023-03-01T14:01:31;8.20;;;4.32;;
76351;SDS011;65179;47.786;19.138;2023-03-01T14:03:58;10.85;;;4.50;;
76351;SDS011;65179;47.786;19.138;2023-03-01T14:06:25;7.43;;;4.20;;
76351;SDS011;65179;47.786;19.138;2023-03-01T14:09:08;8.10;;;4.03;;
76351;SDS011;65179;47.786;19.138;2023-03-01T14:14:29;10.18;;;4.20;;
76351;SDS011;65179;47.786;19.138;2023-03-01T14:19:28;8.80;;;4.20;;
76351;SDS011;65179;47.786;19.138;2023-03-01T14:21:58;8.27;;;4.53;;
76351;SDS011;65179;47.786;19.138;2023-03-01T14:24:44;8.32;;;4.20;;
76351;SDS011;65179;47.786;19.138;2023-03-01T14:27:14;10.50;;;4.43;;
76351;SDS011;65179;47.786;19.138;2023-03-01T14:29:40;8.00;;;4.15;;
76351;SDS011;65179;47.786;19.138;2023-03-01T14:34:46;9.45;;;5.00;;
76351;SDS011;65179;47.786;19.138;2023-03-01T14:39:48;10.53;;;4.73;;
76351;SDS011;65179;47.786;19.138;2023-03-01T14:42:14;8.98;;;5.00;;
76351;SDS011;65179;47.786;19.138;2023-03-01T14:44:45;9.20;;;4.93;;
76351;SDS011;65179;47.786;19.138;2023-03-01T14:47:14;8.27;;;4.37;;
76351;SDS011;65179;47.786;19.138;2023-03-01T14:49:44;11.05;;;4.62;;
76351;SDS011;65179;47.786;19.138;2023-03-01T14:52:20;12.30;;;5.07;;
76351;SDS011;65179;47.786;19.138;2023-03-01T14:54:48;12.35;;;5.25;;
76351;SDS011;65179;47.786;19.138;2023-03-01T14:57:23;10.73;;;4.50;;
76351;SDS011;65179;47.786;19.138;2023-03-01T14:59:51;9.53;;;4.63;;
76351;SDS011;65179;47.786;19.138;2023-03-01T15:02:20;10.65;;;4.47;;
76351;SDS011;65179;47.786;19.138;2023-03-01T15:04:49;10.57;;;4.45;;
76351;SDS011;65179;47.786;19.138;2023-03-01T15:07:17;8.82;;;4.05;;
76351;SDS011;65179;47.786;19.138;2023-03-01T15:09:44;8.95;;;4.55;;
76351;SDS011;65179;47.786;19.138;2023-03-01T15:14:54;8.90;;;4.25;;
76351;SDS011;65179;47.786;19.138;2023-03-01T15:17:31;9.65;;;4.32;;
76351;SDS011;65179;47.786;19.138;2023-03-01T15:19:58;8.30;;;4.15;;
76351;SDS011;65179;47.786;19.138;2023-03-01T15:22:25;7.93;;;4.32;;
76351;SDS011;65179;47.786;19.138;2023-03-01T15:24:52;8.17;;;4.50;;
76351;SDS011;65179;47.786;19.138;2023-03-01T15:27:19;13.52;;;4.93;;
76351;SDS011;65179;47.786;19.138;2023-03-01T15:29:48;10.13;;;4.15;;
76351;SDS011;65179;47.786;19.138;2023-03-01T15:32:34;11.18;;;4.37;;
76351;SDS011;65179;47.786;19.138;2023-03-01T15:40:51;6.90;;;3.67;;
76351;SDS011;65179;47.786;19.138;2023-03-01T15:43:41;7.28;;;4.25;;
76351;SDS011;65179;47.786;19.138;2023-03-01T15:46:16;11.12;;;4.40;;
76351;SDS011;65179;47.786;19.138;2023-03-01T15:48:45;8.27;;;3.70;;
76351;SDS011;65179;47.786;19.138;2023-03-01T15:51:14;7.10;;;3.90;;
76351;SDS011;65179;47.786;19.138;2023-03-01T15:53:41;9.32;;;3.83;;
76351;SDS011;65179;47.786;19.138;2023-03-01T15:56:11;9.90;;;4.10;;
76351;SDS011;65179;47.786;19.138;2023-03-01T15:58:37;10.73;;;3.90;;
76351;SDS011;65179;47.786;19.138;2023-03-01T16:01:02;9.80;;;3.80;;
76351;SDS011;65179;47.786;19.138;2023-03-01T16:03:33;10.27;;;3.60;;
76351;SDS011;65179;47.786;19.138;2023-03-01T16:05:59;9.23;;;4.03;;
76351;SDS011;65179;47.786;19.138;2023-03-01T16:08:25;6.97;;;3.80;;
76351;SDS011;65179;47.786;19.138;2023-03-01T16:10:51;10.65;;;4.40;;
76351;SDS011;65179;47.786;19.138;2023-03-01T16:13:18;9.70;;;3.97;;
76351;SDS011;65179;47.786;19.138;2023-03-01T16:15:44;7.77;;;4.10;;
76351;SDS011;65179;47.786;19.138;2023-03-01T16:18:10;9.10;;;4.03;;
76351;SDS011;65179;47.786;19.138;2023-03-01T16:20:36;12.32;;;4.97;;
76351;SDS011;65179;47.786;19.138;2023-03-01T16:23:03;11.77;;;5.77;;
76351;SDS011;65179;47.786;19.138;2023-03-01T16:25:31;12.18;;;6.12;;
76351;SDS011;65179;47.786;19.138;2023-03-01T16:27:57;15.77;;;6.90;;
76351;SDS011;65179;47.786;19.138;2023-03-01T16:30:25;16.70;;;7.12;;
76351;SDS011;65179;47.786;19.138;2023-03-01T16:32:50;23.20;;;8.90;;
76351;SDS011;65179;47.786;19.138;2023-03-01T16:35:18;16.75;;;8.00;;
76351;SDS011;65179;47.786;19.138;2023-03-01T16:37:45;18.08;;;7.70;;
76351;SDS011;65179;47.786;19.138;2023-03-01T16:40:22;20.37;;;8.35;;
76351;SDS011;65179;47.786;19.138;2023-03-01T16:42:52;20.73;;;8.55;;
76351;SDS011;65179;47.786;19.138;2023-03-01T16:45:18;17.27;;;7.55;;